Time;durP1;ratioP1;P1;durP2;ratioP2;P2;SDS_P1;SDS_P2;PMS_P1;PMS_P2;Temp;Humidity;BMP_temperature;BMP_pressure;BME280_temperature;BME280_humidity;BME280_pressure;Samples;Min_cycle;Max_cycle;Signal;HPM_P1;HPM_P2
2020/12/10 00:01:05;;;;;;;157.75;55.25;;;0.30;99.90;;;;;;5020110;28;20053;-49
2020/12/10 00:03:30;;;;;;;123.03;45.15;;;0.30;99.90;;;;;;5017379;28;20096;-50
2020/12/10 00:05:56;;;;;;;143.55;49.42;;;0.30;99.90;;;;;;5026019;28;20036;-49
2020/12/10 00:08:21;;;;;;;157.85;52.28;;;0.20;99.90;;;;;;5019557;28;20033;-51
2020/12/10 00:10:47;;;;;;;143.65;48.97;;;0.20;99.90;;;;;;5020025;28;20033;-48
2020/12/10 00:13:12;;;;;;;112.97;40.33;;;0.20;99.90;;;;;;5017401;28;20029;-48
2020/12/10 00:15:38;;;;;;;125.63;41.60;;;0.20;99.90;;;;;;5017985;28;20025;-49
2020/12/10 00:18:03;;;;;;;138.25;48.97;;;0.20;99.90;;;;;;5016703;28;20109;-47
2020/12/10 00:20:29;;;;;;;165.57;54.63;;;0.20;99.90;;;;;;5019545;28;20029;-46
2020/12/10 00:22:54;;;;;;;161.98;54.35;;;0.20;99.90;;;;;;5014580;28;20405;-51
2020/12/10 00:25:20;;;;;;;142.77;50.85;;;0.20;99.90;;;;;;5016439;28;20101;-51
2020/12/10 00:27:45;;;;;;;165.70;55.53;;;0.20;99.90;;;;;;5015458;28;20473;-52
2020/12/10 00:30:11;;;;;;;140.80;52.15;;;0.20;99.90;;;;;;5017265;28;20117;-48
2020/12/10 00:32:39;;;;;;;159.43;57.80;;;0.20;99.90;;;;;;5016013;28;20034;-47
2020/12/10 00:35:07;;;;;;;164.48;56.63;;;0.20;99.90;;;;;;5016709;28;20045;-45
2020/12/10 00:37:34;;;;;;;129.00;45.97;;;0.20;99.90;;;;;;5017903;28;20060;-49
2020/12/10 00:39:59;;;;;;;163.05;56.95;;;0.20;99.90;;;;;;5025079;28;20029;-47
2020/12/10 00:42:25;;;;;;;152.52;49.78;;;0.10;99.90;;;;;;5023743;28;20038;-50
2020/12/10 00:44:50;;;;;;;141.32;48.45;;;0.20;99.90;;;;;;5019326;28;20076;-48
2020/12/10 00:47:17;;;;;;;157.27;52.72;;;0.20;99.90;;;;;;5019956;28;20041;-47
2020/12/10 00:49:43;;;;;;;143.25;50.50;;;0.20;99.90;;;;;;5027109;28;20038;-48
2020/12/10 00:52:09;;;;;;;125.97;43.67;;;0.20;99.90;;;;;;5019782;28;20393;-52
2020/12/10 00:54:35;;;;;;;115.53;40.63;;;0.10;99.90;;;;;;5020825;28;20079;-52
2020/12/10 00:57:00;;;;;;;150.88;48.97;;;0.10;99.90;;;;;;5026484;28;20041;-49
2020/12/10 00:59:26;;;;;;;125.20;42.55;;;0.20;99.90;;;;;;5023452;28;20049;-52
2020/12/10 01:01:51;;;;;;;169.45;56.45;;;0.20;99.90;;;;;;5024060;28;20034;-53
2020/12/10 01:04:17;;;;;;;153.95;52.05;;;0.20;99.90;;;;;;5024159;28;20049;-48
2020/12/10 01:06:42;;;;;;;155.70;52.42;;;0.20;99.90;;;;;;5020250;28;20481;-49
2020/12/10 01:09:09;;;;;;;143.90;50.28;;;0.20;99.90;;;;;;5020831;28;20167;-46
2020/12/10 01:11:35;;;;;;;125.85;40.92;;;0.20;99.90;;;;;;5016445;28;20488;-50
2020/12/10 01:14:01;;;;;;;135.25;45.40;;;0.20;99.90;;;;;;5021575;28;20072;-51
2020/12/10 01:16:27;;;;;;;162.88;54.65;;;0.20;99.90;;;;;;5020813;28;20068;-51
2020/12/10 01:18:52;;;;;;;162.43;56.08;;;0.20;99.90;;;;;;5016991;28;20185;-47
2020/12/10 01:21:35;;;;;;;139.40;49.50;;;0.20;99.90;;;;;;5016672;28;20037;-50
2020/12/10 01:24:02;;;;;;;148.25;49.38;;;0.30;99.90;;;;;;5020642;28;20064;-49
2020/12/10 01:26:29;;;;;;;176.85;62.63;;;0.30;99.90;;;;;;5018674;28;20118;-48
2020/12/10 01:28:56;;;;;;;136.02;46.45;;;0.30;99.90;;;;;;5018506;28;20075;-48
2020/12/10 01:31:22;;;;;;;133.90;44.42;;;0.30;99.90;;;;;;5016268;28;20076;-48
2020/12/10 01:33:47;;;;;;;139.25;48.28;;;0.30;99.90;;;;;;5019865;28;20505;-48
2020/12/10 01:36:24;;;;;;;129.40;42.58;;;0.30;99.90;;;;;;5018048;28;20476;-49
2020/12/10 01:38:50;;;;;;;;;;;0.30;99.90;;;;;;5016352;28;20124;-48
2020/12/10 01:41:16;;;;;;;182.85;57.30;;;0.30;99.90;;;;;;5017677;28;19917;-51
2020/12/10 01:43:42;;;;;;;177.07;58.08;;;0.30;99.90;;;;;;5020151;28;20053;-48
2020/12/10 01:46:07;;;;;;;148.07;47.72;;;0.30;99.90;;;;;;5024475;28;20059;-48
2020/12/10 01:48:34;;;;;;;153.00;53.85;;;0.30;99.90;;;;;;5016417;28;20040;-46
2020/12/10 01:51:00;;;;;;;150.77;50.58;;;0.30;99.90;;;;;;5018359;28;20504;-52
2020/12/10 01:53:25;;;;;;;131.63;45.08;;;0.20;99.90;;;;;;5018180;28;20083;-48
2020/12/10 01:55:52;;;;;;;132.88;47.58;;;0.30;99.90;;;;;;5018544;28;20473;-46
2020/12/10 01:58:18;;;;;;;139.02;45.55;;;0.30;99.90;;;;;;5017852;28;20040;-49
2020/12/10 02:00:43;;;;;;;174.52;58.45;;;0.30;99.90;;;;;;5015240;28;20029;-49
2020/12/10 02:03:08;;;;;;;112.55;39.80;;;0.30;99.90;;;;;;5013716;28;20033;-47
2020/12/10 02:05:41;;;;;;;142.27;47.45;;;0.30;99.90;;;;;;5015940;28;20030;-50
2020/12/10 02:08:07;;;;;;;148.93;48.72;;;0.30;99.90;;;;;;5015896;28;20037;-49
2020/12/10 02:10:32;;;;;;;126.45;43.25;;;0.30;99.90;;;;;;5021641;28;20052;-48
2020/12/10 02:12:58;;;;;;;174.63;56.10;;;0.30;99.90;;;;;;5013033;28;20038;-49
2020/12/10 02:15:23;;;;;;;150.27;51.30;;;0.30;99.90;;;;;;5023633;28;20030;-51
2020/12/10 02:17:48;;;;;;;156.55;53.45;;;0.30;99.90;;;;;;5021773;28;20032;-46
2020/12/10 02:20:14;;;;;;;163.10;51.92;;;0.30;99.90;;;;;;5017016;28;20446;-48
2020/12/10 02:22:39;;;;;;;148.25;49.25;;;0.30;99.90;;;;;;5020486;28;20050;-48
2020/12/10 02:25:05;;;;;;;138.30;47.78;;;0.30;99.90;;;;;;5026197;28;20033;-45
2020/12/10 02:27:30;;;;;;;143.18;49.80;;;0.30;99.90;;;;;;5028906;28;20034;-47
2020/12/10 02:29:56;;;;;;;136.55;41.72;;;0.30;99.90;;;;;;5017244;28;20053;-51
2020/12/10 02:32:21;;;;;;;146.55;50.13;;;0.20;99.90;;;;;;5018285;28;20041;-47
2020/12/10 02:34:47;;;;;;;116.07;39.08;;;0.20;99.90;;;;;;5025873;28;20052;-49
2020/12/10 02:37:12;;;;;;;126.30;43.42;;;0.30;99.90;;;;;;5025892;28;20531;-49
2020/12/10 02:39:38;;;;;;;166.35;53.63;;;0.30;99.90;;;;;;5027490;28;20053;-48
2020/12/10 02:42:04;;;;;;;180.38;58.78;;;0.30;99.90;;;;;;5022403;28;20065;-45
2020/12/10 02:44:29;;;;;;;152.32;52.63;;;0.30;99.90;;;;;;5021808;28;20512;-46
2020/12/10 02:46:55;;;;;;;147.38;50.53;;;0.20;99.90;;;;;;5021940;28;20112;-45
2020/12/10 02:49:20;;;;;;;173.85;55.92;;;0.20;99.90;;;;;;5020941;28;20022;-51
2020/12/10 02:51:46;;;;;;;170.85;54.85;;;0.20;99.90;;;;;;5021820;28;20060;-44
2020/12/10 02:54:11;;;;;;;163.48;52.80;;;0.20;99.90;;;;;;5020456;28;20036;-45
2020/12/10 02:56:37;;;;;;;185.93;56.08;;;0.10;99.90;;;;;;5021767;28;20025;-43
2020/12/10 02:59:02;;;;;;;142.88;46.83;;;0.20;99.90;;;;;;5021439;28;20036;-49
2020/12/10 03:01:28;;;;;;;164.95;54.60;;;0.20;99.90;;;;;;5020556;28;20040;-49
2020/12/10 03:03:53;;;;;;;181.55;53.72;;;0.10;99.90;;;;;;5022301;28;20034;-47
2020/12/10 03:06:19;;;;;;;172.85;54.92;;;0.20;99.90;;;;;;5021284;28;20037;-43
2020/12/10 03:08:44;;;;;;;164.07;53.28;;;0.20;99.90;;;;;;5021298;28;20025;-46
2020/12/10 03:11:10;;;;;;;164.52;52.83;;;0.20;99.90;;;;;;5019436;28;20393;-52
2020/12/10 03:13:35;;;;;;;156.35;50.83;;;0.20;99.90;;;;;;5020002;28;20013;-48
2020/12/10 03:16:01;;;;;;;169.68;55.75;;;0.20;99.90;;;;;;5019541;28;20023;-47
2020/12/10 03:18:27;;;;;;;137.38;45.55;;;0.20;99.90;;;;;;5018804;28;20030;-48
2020/12/10 03:20:53;;;;;;;185.02;56.78;;;0.20;99.90;;;;;;5018859;28;20029;-52
2020/12/10 03:23:19;;;;;;;151.13;51.60;;;0.20;99.90;;;;;;5020859;28;20383;-47
2020/12/10 03:25:44;;;;;;;157.60;52.20;;;0.20;99.90;;;;;;5021095;28;20036;-49
2020/12/10 03:28:10;;;;;;;147.13;49.88;;;0.20;99.90;;;;;;5017120;28;20492;-47
2020/12/10 03:30:36;;;;;;;177.50;56.17;;;0.20;99.90;;;;;;5018613;28;20109;-44
2020/12/10 03:33:01;;;;;;;148.80;50.33;;;0.20;99.90;;;;;;5017776;28;20022;-45
2020/12/10 03:35:27;;;;;;;187.77;57.85;;;0.20;99.90;;;;;;5017527;28;20436;-44
2020/12/10 03:37:52;;;;;;;174.15;52.70;;;0.20;99.90;;;;;;5026377;28;20017;-47
2020/12/10 03:40:18;;;;;;;184.48;56.10;;;0.10;99.90;;;;;;5022418;28;20428;-48
2020/12/10 03:42:44;;;;;;;149.00;48.47;;;0.10;99.90;;;;;;5025240;28;20037;-45
2020/12/10 03:45:09;;;;;;;154.05;50.35;;;0.10;99.90;;;;;;5026151;28;20031;-49
2020/12/10 03:47:35;;;;;;;142.05;45.47;;;0.10;99.90;;;;;;5020570;28;20034;-50
2020/12/10 03:50:00;;;;;;;141.27;46.35;;;0.10;99.90;;;;;;5024895;28;20481;-44
2020/12/10 03:52:26;;;;;;;158.13;46.42;;;0.10;99.90;;;;;;5029244;28;20326;-47
2020/12/10 03:54:52;;;;;;;160.38;49.03;;;0.10;99.90;;;;;;5026980;28;20076;-45
2020/12/10 03:57:17;;;;;;;195.20;59.70;;;0.10;99.90;;;;;;5016564;28;20310;-50
2020/12/10 03:59:43;;;;;;;155.43;48.00;;;0.10;99.90;;;;;;5020095;28;20056;-46
2020/12/10 04:02:08;;;;;;;137.93;43.95;;;0.10;99.90;;;;;;5017456;28;20048;-45
2020/12/10 04:04:33;;;;;;;197.90;60.38;;;0.10;99.90;;;;;;5019459;28;20037;-51
2020/12/10 04:06:59;;;;;;;161.82;51.92;;;0.00;99.90;;;;;;5017158;28;20073;-53
2020/12/10 04:09:25;;;;;;;175.43;53.60;;;0.10;99.90;;;;;;5021838;28;20077;-45
2020/12/10 04:11:50;;;;;;;138.40;42.67;;;0.00;99.90;;;;;;5016713;28;20124;-47
2020/12/10 04:14:16;;;;;;;142.95;45.85;;;0.00;99.90;;;;;;5015806;28;20049;-44
2020/12/10 04:16:41;;;;;;;143.85;44.42;;;0.00;99.90;;;;;;5023509;28;20046;-49
2020/12/10 04:19:07;;;;;;;156.23;50.30;;;0.00;99.90;;;;;;5017677;28;20041;-46
2020/12/10 04:21:32;;;;;;;188.02;53.50;;;0.00;99.90;;;;;;5019964;28;20033;-48
2020/12/10 04:23:58;;;;;;;159.55;53.17;;;0.00;99.90;;;;;;5020512;28;20041;-45
2020/12/10 04:26:23;;;;;;;144.90;47.42;;;0.00;99.90;;;;;;5018268;28;20030;-48
2020/12/10 04:28:49;;;;;;;153.65;46.45;;;0.00;99.90;;;;;;5017888;28;20026;-47
2020/12/10 04:31:16;;;;;;;151.75;48.25;;;0.00;99.90;;;;;;5023709;28;20022;-47
2020/12/10 04:33:42;;;;;;;134.35;41.65;;;0.00;99.90;;;;;;5017948;28;20026;-48
2020/12/10 04:36:08;;;;;;;140.95;46.58;;;0.00;99.90;;;;;;5019655;28;20079;-49
2020/12/10 04:38:33;;;;;;;154.48;46.60;;;0.00;99.90;;;;;;5019617;28;20072;-47
2020/12/10 04:41:00;;;;;;;133.77;41.13;;;0.00;99.90;;;;;;5020168;28;20077;-46
2020/12/10 04:43:26;;;;;;;159.55;47.63;;;0.00;99.90;;;;;;5020638;28;20063;-47
2020/12/10 04:46:00;;;;;;;109.18;38.70;;;0.00;99.90;;;;;;5016790;28;20037;-47
2020/12/10 04:48:31;;;;;;;109.82;36.88;;;0.00;99.90;;;;;;5018049;28;20026;-52
2020/12/10 04:50:59;;;;;;;128.38;43.03;;;0.00;99.90;;;;;;5015819;28;20065;-44
2020/12/10 04:53:26;;;;;;;164.65;49.03;;;-0.10;99.90;;;;;;5016698;28;20084;-48
2020/12/10 04:55:57;;;;;;;170.52;52.13;;;-0.10;99.90;;;;;;5017223;28;20022;-48
2020/12/10 04:58:22;;;;;;;155.98;49.08;;;-0.10;99.90;;;;;;5016702;28;20113;-51
2020/12/10 05:00:55;;;;;;;155.13;46.63;;;-0.10;99.90;;;;;;5017550;28;20200;-48
2020/12/10 05:03:22;;;;;;;177.07;51.33;;;-0.10;99.90;;;;;;5016515;28;20097;-50
2020/12/10 05:05:47;;;;;;;143.70;47.22;;;-0.20;99.90;;;;;;5015855;28;20363;-47
2020/12/10 05:08:13;;;;;;;181.63;55.90;;;-0.10;99.90;;;;;;5023677;28;20095;-51
2020/12/10 05:10:44;;;;;;;182.35;55.78;;;-0.10;99.90;;;;;;5028427;28;20029;-51
2020/12/10 05:13:13;;;;;;;138.88;43.67;;;-0.10;99.90;;;;;;5026011;28;20376;-46
2020/12/10 05:15:40;;;;;;;159.75;49.40;;;-0.10;99.90;;;;;;5020293;28;20045;-53
2020/12/10 05:18:13;;;;;;;135.38;42.47;;;-0.10;99.90;;;;;;5019549;28;20022;-50
2020/12/10 05:20:46;;;;;;;179.27;52.65;;;-0.10;99.90;;;;;;5025555;28;20033;-46
2020/12/10 05:23:14;;;;;;;176.68;52.58;;;-0.10;99.90;;;;;;5025426;28;20046;-49
2020/12/10 05:25:49;;;;;;;150.45;44.13;;;-0.10;99.90;;;;;;5012871;28;20030;-47
2020/12/10 05:28:16;;;;;;;115.68;37.15;;;-0.10;99.90;;;;;;5014229;28;20433;-52
2020/12/10 05:30:59;;;;;;;140.43;41.08;;;-0.20;99.90;;;;;;5013116;28;20480;-51
2020/12/10 05:33:25;;;;;;;175.20;54.15;;;-0.10;99.90;;;;;;5024974;28;20075;-47
2020/12/10 05:36:03;;;;;;;153.48;48.08;;;-0.10;99.90;;;;;;5012762;28;20116;-52
2020/12/10 05:38:29;;;;;;;154.48;45.55;;;-0.10;99.90;;;;;;5021698;28;20033;-49
2020/12/10 05:41:14;;;;;;;148.65;45.13;;;-0.20;99.90;;;;;;5023645;28;20079;-50
2020/12/10 05:43:40;;;;;;;155.05;48.45;;;-0.10;99.90;;;;;;5017256;28;20037;-47
2020/12/10 05:46:14;;;;;;;164.50;46.00;;;-0.20;99.90;;;;;;5023594;28;20397;-49
2020/12/10 05:48:41;;;;;;;154.30;46.45;;;-0.20;99.90;;;;;;5016522;28;20022;-46
2020/12/10 05:51:15;;;;;;;150.18;42.85;;;-0.20;99.90;;;;;;5016722;28;20128;-47
2020/12/10 05:53:41;;;;;;;180.80;53.85;;;-0.10;99.90;;;;;;5018891;28;20421;-49
2020/12/10 05:56:10;;;;;;;144.80;45.72;;;-0.10;99.90;;;;;;5020539;28;20049;-48
2020/12/10 05:58:49;;;;;;;149.00;43.50;;;-0.10;99.90;;;;;;5019315;28;20404;-46
2020/12/10 06:01:36;;;;;;;134.90;42.03;;;-0.10;99.90;;;;;;5020125;28;20025;-48
2020/12/10 06:04:03;;;;;;;132.98;40.45;;;-0.10;99.90;;;;;;5016899;28;20049;-51
2020/12/10 06:06:30;;;;;;;153.57;42.72;;;-0.10;99.90;;;;;;5017103;28;20037;-49
2020/12/10 06:09:01;;;;;;;169.93;47.90;;;-0.10;99.90;;;;;;5019160;28;20111;-47
2020/12/10 06:11:29;;;;;;;148.48;44.03;;;-0.10;99.90;;;;;;5020209;28;20041;-49
2020/12/10 06:14:03;;;;;;;175.82;50.65;;;-0.10;99.90;;;;;;5017198;28;20026;-48
2020/12/10 06:16:29;;;;;;;147.32;43.20;;;-0.10;99.90;;;;;;5016841;28;20833;-48
2020/12/10 06:19:06;;;;;;;159.25;49.22;;;-0.10;99.90;;;;;;5016307;28;20029;-46
2020/12/10 06:21:45;;;;;;;159.95;45.80;;;-0.10;99.90;;;;;;5013089;28;20428;-46
2020/12/10 06:24:26;;;;;;;156.38;44.78;;;-0.10;99.90;;;;;;5022779;28;20053;-51
2020/12/10 06:26:56;;;;;;;133.05;40.95;;;-0.10;99.90;;;;;;5017595;28;20030;-47
2020/12/10 06:29:26;;;;;;;139.32;41.45;;;-0.10;99.90;;;;;;5019490;28;20057;-47
2020/12/10 06:32:11;;;;;;;172.48;49.85;;;-0.10;99.90;;;;;;5014557;28;20036;-50
2020/12/10 06:34:41;;;;;;;175.93;52.60;;;-0.10;99.90;;;;;;5015481;28;20040;-46
2020/12/10 06:37:27;;;;;;;136.02;40.08;;;-0.10;99.90;;;;;;5025485;28;20448;-47
2020/12/10 06:40:05;;;;;;;100.05;28.65;;;-0.10;99.90;;;;;;5015075;28;20032;-46
2020/12/10 06:42:45;;;;;;;141.73;43.00;;;-0.10;99.90;;;;;;5025070;28;20590;-46
2020/12/10 06:45:24;;;;;;;136.68;40.92;;;0.00;99.90;;;;;;5014256;28;20041;-47
2020/12/10 06:47:49;;;;;;;151.98;47.33;;;0.00;99.90;;;;;;5016964;28;20343;-52
2020/12/10 06:50:39;;;;;;;136.35;40.90;;;-0.10;99.90;;;;;;5016961;28;20052;-49
2020/12/10 06:53:15;;;;;;;115.70;34.13;;;0.00;99.90;;;;;;5023832;28;20026;-48
2020/12/10 06:55:56;;;;;;;148.07;45.10;;;0.00;99.90;;;;;;5024861;28;20593;-48
2020/12/10 06:58:36;;;;;;;130.25;41.92;;;0.00;99.90;;;;;;5027256;28;20091;-47
2020/12/10 07:01:20;;;;;;;147.57;43.22;;;0.00;99.90;;;;;;5024805;28;20132;-47
2020/12/10 07:03:46;;;;;;;187.05;53.10;;;-0.10;99.90;;;;;;5025862;28;20068;-46
2020/12/10 07:06:18;;;;;;;159.15;45.22;;;-0.10;99.90;;;;;;5022341;28;20341;-47
2020/12/10 07:09:03;;;;;;;132.40;39.92;;;0.00;99.90;;;;;;5016357;28;20048;-48
2020/12/10 07:11:33;;;;;;;187.45;51.75;;;-0.10;99.90;;;;;;5017073;28;20022;-48
2020/12/10 07:14:01;;;;;;;96.07;30.90;;;0.00;99.90;;;;;;5019173;28;20092;-46
2020/12/10 07:16:31;;;;;;;157.50;45.47;;;0.00;99.90;;;;;;5019644;28;20071;-47
2020/12/10 07:18:57;;;;;;;169.20;47.13;;;0.00;99.90;;;;;;5017878;28;20025;-47
2020/12/10 07:21:23;;;;;;;153.73;49.92;;;0.00;99.90;;;;;;5024855;28;20029;-48
2020/12/10 07:23:50;;;;;;;127.68;39.38;;;0.10;99.90;;;;;;5020032;28;20056;-50
2020/12/10 07:26:16;;;;;;;156.75;45.17;;;0.10;99.90;;;;;;5021378;28;20112;-47
2020/12/10 07:28:41;;;;;;;125.80;41.58;;;0.00;99.90;;;;;;5021832;28;20040;-47
2020/12/10 07:31:15;;;;;;;122.22;38.33;;;0.00;99.90;;;;;;5021785;28;20030;-45
2020/12/10 07:33:40;;;;;;;137.60;41.83;;;0.00;99.90;;;;;;5019209;28;20040;-45
2020/12/10 07:36:07;;;;;;;116.88;35.63;;;0.00;99.90;;;;;;5019683;28;20034;-46
2020/12/10 07:38:33;;;;;;;132.90;41.92;;;0.10;99.90;;;;;;5018850;28;20509;-48
2020/12/10 07:40:58;;;;;;;129.75;40.75;;;0.10;99.90;;;;;;5019054;28;20579;-47
2020/12/10 07:43:26;;;;;;;151.77;48.53;;;0.10;99.90;;;;;;5019266;28;20037;-50
2020/12/10 07:45:52;;;;;;;136.57;41.75;;;0.00;99.90;;;;;;5018760;28;20026;-52
2020/12/10 07:48:17;;;;;;;137.95;38.97;;;0.10;99.90;;;;;;5018010;28;20100;-50
2020/12/10 07:50:45;;;;;;;134.65;43.55;;;0.10;99.90;;;;;;5017283;28;20120;-50
2020/12/10 07:53:11;;;;;;;139.43;44.17;;;0.00;99.90;;;;;;5017198;28;20030;-49
2020/12/10 07:55:49;;;;;;;130.38;41.72;;;0.10;99.90;;;;;;5018713;28;20037;-47
2020/12/10 07:58:46;;;;;;;146.40;42.72;;;0.00;99.90;;;;;;5019661;28;20125;-52
2020/12/10 08:01:12;;;;;;;122.38;35.85;;;0.00;99.90;;;;;;5020377;28;20029;-50
2020/12/10 08:04:12;;;;;;;162.63;45.35;;;0.10;99.90;;;;;;5022286;28;20512;-47
2020/12/10 08:06:39;;;;;;;133.80;41.97;;;0.10;99.90;;;;;;5025661;28;20033;-47
2020/12/10 08:09:07;;;;;;;134.10;40.08;;;0.10;99.90;;;;;;5020358;28;20033;-51
2020/12/10 08:11:32;;;;;;;135.02;43.80;;;0.10;99.90;;;;;;5024824;28;20049;-51
2020/12/10 08:14:00;;;;;;;124.43;36.67;;;0.10;99.90;;;;;;5025841;28;20829;-46
2020/12/10 08:16:37;;;;;;;128.35;36.70;;;0.10;99.90;;;;;;5020519;28;20138;-52
2020/12/10 08:19:11;;;;;;;112.53;32.90;;;0.10;99.90;;;;;;5023872;28;20469;-49
2020/12/10 08:21:36;;;;;;;100.57;28.33;;;0.10;99.90;;;;;;5029011;28;20389;-47
2020/12/10 08:24:02;;;;;;;114.28;38.85;;;0.20;99.90;;;;;;5019601;28;20042;-49
2020/12/10 08:26:29;;;;;;;100.85;30.65;;;0.30;99.90;;;;;;5026250;28;20040;-48
2020/12/10 08:28:55;;;;;;;128.52;37.47;;;0.30;99.90;;;;;;5019157;28;20113;-47
2020/12/10 08:31:23;;;;;;;137.70;38.65;;;0.30;99.90;;;;;;5014362;28;20481;-44
2020/12/10 08:33:48;;;;;;;124.68;38.47;;;0.30;99.90;;;;;;5026860;28;20079;-51
2020/12/10 08:36:26;;;;;;;108.80;32.10;;;0.20;99.90;;;;;;5025548;28;20129;-48
2020/12/10 08:38:53;;;;;;;109.20;33.30;;;0.20;99.90;;;;;;5032130;28;20459;-47
2020/12/10 08:41:30;;;;;;;124.05;39.85;;;0.30;99.90;;;;;;5026956;28;20025;-52
2020/12/10 08:43:57;;;;;;;116.47;36.35;;;0.30;99.90;;;;;;5022463;28;20064;-48
2020/12/10 08:46:24;;;;;;;103.40;34.05;;;0.20;99.90;;;;;;5022669;28;20021;-52
2020/12/10 08:48:52;;;;;;;117.70;34.47;;;0.20;99.90;;;;;;5026666;28;20497;-50
2020/12/10 08:51:17;;;;;;;98.70;30.30;;;0.20;99.90;;;;;;5019913;28;20025;-47
2020/12/10 08:53:50;;;;;;;131.93;39.10;;;0.20;99.90;;;;;;5017874;28;20034;-53
2020/12/10 08:56:25;;;;;;;112.80;34.45;;;0.20;99.90;;;;;;5028142;28;20021;-51
2020/12/10 08:58:50;;;;;;;117.22;36.28;;;0.20;99.90;;;;;;5023242;28;20469;-51
2020/12/10 09:01:16;;;;;;;127.50;37.50;;;0.20;99.90;;;;;;5021356;28;20554;-50
2020/12/10 09:03:42;;;;;;;105.65;32.22;;;0.20;99.90;;;;;;5021783;28;20041;-48
2020/12/10 09:06:08;;;;;;;114.72;34.13;;;0.20;99.90;;;;;;5018579;28;20496;-49
2020/12/10 09:08:33;;;;;;;122.03;35.85;;;0.10;99.90;;;;;;5018707;28;20504;-46
2020/12/10 09:10:59;;;;;;;123.85;35.08;;;0.10;99.90;;;;;;5024715;28;20029;-52
2020/12/10 09:13:25;;;;;;;86.72;27.38;;;0.10;99.90;;;;;;5018822;28;20029;-51
2020/12/10 09:15:51;;;;;;;135.07;42.13;;;0.10;99.90;;;;;;5020460;28;20060;-49
2020/12/10 09:18:18;;;;;;;111.22;34.45;;;0.10;99.90;;;;;;5017977;28;20029;-49
2020/12/10 09:20:43;;;;;;;112.97;34.88;;;0.10;99.90;;;;;;5022849;28;20053;-53
2020/12/10 09:23:12;;;;;;;145.15;40.30;;;0.10;99.90;;;;;;5018910;28;20584;-51
2020/12/10 09:25:41;;;;;;;111.53;33.92;;;0.10;99.90;;;;;;5021113;28;20024;-52
2020/12/10 09:28:09;;;;;;;99.78;31.13;;;0.20;99.90;;;;;;5023048;28;20147;-53
2020/12/10 09:30:38;;;;;;;106.15;32.78;;;0.20;99.90;;;;;;5018097;28;20025;-54
2020/12/10 09:33:05;;;;;;;116.95;36.65;;;0.20;99.90;;;;;;5018530;28;20659;-49
2020/12/10 09:35:32;;;;;;;106.00;33.78;;;0.10;99.90;;;;;;5024259;28;20018;-51
2020/12/10 09:38:01;;;;;;;102.75;32.40;;;0.10;99.90;;;;;;5022363;28;20025;-49
2020/12/10 09:40:28;;;;;;;138.52;41.88;;;0.20;99.90;;;;;;5027592;28;20072;-52
2020/12/10 09:42:54;;;;;;;107.55;33.75;;;0.10;99.90;;;;;;5023986;28;20079;-52
2020/12/10 09:45:20;;;;;;;101.43;32.97;;;0.20;99.90;;;;;;5024865;28;20025;-52
2020/12/10 09:47:46;;;;;;;111.72;33.65;;;0.20;99.90;;;;;;5029816;28;20026;-52
2020/12/10 09:50:23;;;;;;;93.43;29.35;;;0.20;99.90;;;;;;5027613;28;20038;-51
2020/12/10 09:52:56;;;;;;;124.22;38.33;;;0.30;99.90;;;;;;5016964;28;20037;-49
2020/12/10 09:58:01;;;;;;;107.15;32.65;;;0.20;99.90;;;;;;5027353;28;20373;-48
2020/12/10 10:00:27;;;;;;;98.55;31.80;;;0.10;99.90;;;;;;5025487;28;20018;-50
2020/12/10 10:02:52;;;;;;;94.43;29.08;;;0.10;99.90;;;;;;5025466;28;20033;-47
2020/12/10 10:05:18;;;;;;;85.60;28.75;;;0.10;99.90;;;;;;5020009;28;20388;-48
2020/12/10 10:07:43;;;;;;;107.85;34.25;;;0.00;99.90;;;;;;5017780;28;20075;-47
2020/12/10 10:10:09;;;;;;;109.20;34.50;;;0.00;99.90;;;;;;5015538;28;20041;-46
2020/12/10 10:12:34;;;;;;;91.25;27.35;;;0.00;99.90;;;;;;5022690;28;20109;-47
2020/12/10 10:15:00;;;;;;;91.90;30.20;;;0.00;99.90;;;;;;5018513;28;20033;-50
2020/12/10 10:17:25;;;;;;;104.90;35.45;;;0.00;99.90;;;;;;5018351;28;20033;-48
2020/12/10 10:19:51;;;;;;;86.50;29.05;;;0.00;99.90;;;;;;5017781;28;20424;-47
2020/12/10 10:22:18;;;;;;;99.35;30.05;;;0.00;99.90;;;;;;5017797;28;20054;-51
2020/12/10 10:24:43;;;;;;;84.45;26.73;;;0.10;99.90;;;;;;5019439;28;20026;-51
2020/12/10 10:27:09;;;;;;;84.20;26.95;;;0.00;99.90;;;;;;5018938;28;20044;-48
2020/12/10 10:29:34;;;;;;;85.18;25.67;;;0.10;99.90;;;;;;5019607;28;20030;-50
2020/12/10 10:32:00;;;;;;;86.68;26.35;;;0.10;99.90;;;;;;5019410;28;20041;-48
2020/12/10 10:34:28;;;;;;;95.25;27.30;;;0.10;99.90;;;;;;5016743;28;20030;-48
2020/12/10 10:36:53;;;;;;;99.80;29.80;;;0.10;99.90;;;;;;5017474;28;20083;-51
2020/12/10 10:39:19;;;;;;;101.68;31.67;;;0.20;99.90;;;;;;5016737;28;20029;-48
2020/12/10 10:41:48;;;;;;;76.47;21.63;;;0.20;99.90;;;;;;5023289;28;20060;-52
2020/12/10 10:44:14;;;;;;;104.25;32.03;;;0.20;99.90;;;;;;5014566;28;20108;-45
2020/12/10 10:46:40;;;;;;;83.35;28.17;;;0.20;99.90;;;;;;5017759;28;20382;-47
2020/12/10 10:49:06;;;;;;;80.80;24.98;;;0.20;99.90;;;;;;5022801;28;20030;-47
2020/12/10 10:51:31;;;;;;;89.82;28.67;;;0.20;99.90;;;;;;5027083;28;20075;-53
2020/12/10 10:53:57;;;;;;;94.80;28.15;;;0.20;99.90;;;;;;5024052;28;20055;-49
2020/12/10 10:56:24;;;;;;;90.78;25.42;;;0.10;99.90;;;;;;5022578;28;20028;-48
2020/12/10 10:58:50;;;;;;;90.93;29.40;;;0.10;99.90;;;;;;5022373;28;20041;-51
2020/12/10 11:01:24;;;;;;;77.43;25.00;;;0.10;99.90;;;;;;5019718;28;20026;-46
2020/12/10 11:03:50;;;;;;;112.65;33.70;;;0.10;99.90;;;;;;5019503;28;20366;-48
2020/12/10 11:06:15;;;;;;;88.85;27.67;;;0.10;99.90;;;;;;5026701;28;20052;-46
2020/12/10 11:08:41;;;;;;;67.47;22.95;;;0.10;99.90;;;;;;5025865;28;20119;-48
2020/12/10 11:11:06;;;;;;;73.97;22.65;;;0.10;99.90;;;;;;5024042;28;20112;-44
2020/12/10 11:13:32;;;;;;;73.70;24.25;;;0.10;99.90;;;;;;5017198;28;20367;-46
2020/12/10 11:15:57;;;;;;;78.60;25.13;;;0.10;99.90;;;;;;5021670;28;20030;-46
2020/12/10 11:18:23;;;;;;;66.43;23.75;;;0.10;99.90;;;;;;5027634;28;20021;-46
2020/12/10 11:20:48;;;;;;;73.32;25.08;;;0.10;99.90;;;;;;5028480;28;20053;-46
2020/12/10 11:23:14;;;;;;;75.53;21.73;;;0.10;99.90;;;;;;5015272;28;20045;-44
2020/12/10 11:25:40;;;;;;;84.20;25.67;;;0.10;99.90;;;;;;5018018;28;20038;-49
2020/12/10 11:28:05;;;;;;;79.82;26.90;;;0.10;99.90;;;;;;5027045;28;20373;-48
2020/12/10 11:30:31;;;;;;;80.03;26.00;;;0.00;99.90;;;;;;5028892;28;20386;-45
2020/12/10 11:32:58;;;;;;;71.75;19.80;;;0.10;99.90;;;;;;5032110;28;20040;-50
2020/12/10 11:35:23;;;;;;;63.30;20.42;;;0.10;99.90;;;;;;5021661;28;20025;-49
2020/12/10 11:37:51;;;;;;;75.28;25.52;;;0.20;99.90;;;;;;5015629;28;20405;-47
2020/12/10 11:40:17;;;;;;;75.70;24.27;;;0.20;99.90;;;;;;5021455;28;20018;-46
2020/12/10 11:42:42;;;;;;;78.32;24.40;;;0.20;99.90;;;;;;5017399;28;20044;-45
2020/12/10 11:45:08;;;;;;;77.43;23.88;;;0.20;99.90;;;;;;5025753;28;20061;-46
2020/12/10 11:47:33;;;;;;;90.00;26.25;;;0.20;99.90;;;;;;5021138;28;20030;-46
2020/12/10 11:49:58;;;;;;;72.88;24.02;;;0.20;99.90;;;;;;5021892;28;20041;-49
2020/12/10 11:52:24;;;;;;;88.57;28.35;;;0.20;99.90;;;;;;5022735;28;20034;-46
2020/12/10 11:54:50;;;;;;;70.50;21.05;;;0.20;99.90;;;;;;5026844;28;20520;-47
2020/12/10 11:57:16;;;;;;;69.80;23.77;;;0.20;99.90;;;;;;5021877;28;20041;-49
2020/12/10 11:59:41;;;;;;;69.22;22.17;;;0.10;99.90;;;;;;5027455;28;20030;-47
2020/12/10 12:02:09;;;;;;;67.80;21.90;;;0.20;99.90;;;;;;5018150;28;20503;-48
2020/12/10 12:04:35;;;;;;;56.53;18.50;;;0.20;99.90;;;;;;5019331;28;20033;-50
2020/12/10 12:07:01;;;;;;;71.68;23.40;;;0.20;99.90;;;;;;5027565;28;20026;-48
2020/12/10 12:09:27;;;;;;;64.40;20.20;;;0.20;99.90;;;;;;5021374;28;20025;-44
2020/12/10 12:11:53;;;;;;;68.30;21.88;;;0.30;99.90;;;;;;5023428;28;20029;-47
2020/12/10 12:14:18;;;;;;;71.75;25.00;;;0.30;99.90;;;;;;5021132;28;20488;-45
2020/12/10 12:16:48;;;;;;;71.15;24.50;;;0.30;99.90;;;;;;5018716;28;20041;-51
2020/12/10 12:19:13;;;;;;;72.28;23.73;;;0.20;99.90;;;;;;5016779;28;20064;-51
2020/12/10 12:21:39;;;;;;;70.72;21.10;;;0.30;99.90;;;;;;5018476;28;20025;-51
2020/12/10 12:24:04;;;;;;;79.32;22.75;;;0.20;99.90;;;;;;5020216;28;20053;-50
2020/12/10 12:26:32;;;;;;;77.30;23.10;;;0.10;99.90;;;;;;5022378;28;20886;-46
2020/12/10 12:28:58;;;;;;;68.82;22.73;;;0.10;99.90;;;;;;5020923;28;21184;-46
2020/12/10 12:31:30;;;;;;;77.38;22.70;;;0.10;99.90;;;;;;5020586;28;20030;-49
2020/12/10 12:33:56;;;;;;;67.28;21.90;;;0.10;99.90;;;;;;5024188;28;20057;-48